Time;durP1;ratioP1;P1;durP2;ratioP2;P2;SDS_P1;SDS_P2;PMS_P1;PMS_P2;Temp;Humidity;BMP_temperature;BMP_pressure;BME280_temperature;BME280_humidity;BME280_pressure;Samples;Min_cycle;Max_cycle;Signal;HPM_P1;HPM_P2
2021/12/09 00:01:01;;;;;;;14.27;6.22;;;2.70;99.90;;;;;;4902936;29;20056;-72
2021/12/09 00:03:28;;;;;;;16.20;6.50;;;2.80;99.90;;;;;;4903170;29;20067;-72
2021/12/09 00:05:56;;;;;;;12.80;5.40;;;2.70;99.90;;;;;;4896117;29;20041;-72
2021/12/09 00:08:24;;;;;;;16.98;6.97;;;2.70;99.90;;;;;;4882228;29;20484;-72
2021/12/09 00:10:50;;;;;;;15.57;6.45;;;2.70;99.90;;;;;;4896966;29;20472;-72
2021/12/09 00:13:16;;;;;;;13.55;6.00;;;2.70;99.90;;;;;;4886061;29;20135;-72
2021/12/09 00:15:41;;;;;;;14.55;6.63;;;2.70;99.90;;;;;;4894902;29;20040;-72
2021/12/09 00:18:07;;;;;;;12.93;5.70;;;2.70;99.90;;;;;;4897297;29;20937;-72
2021/12/09 00:20:33;;;;;;;12.70;6.38;;;2.70;99.90;;;;;;4895971;29;20044;-72
2021/12/09 00:22:58;;;;;;;16.17;6.75;;;2.70;99.90;;;;;;4886679;29;20107;-72
2021/12/09 00:25:24;;;;;;;15.68;6.63;;;2.70;99.90;;;;;;4882784;29;20107;-72
2021/12/09 00:27:51;;;;;;;18.27;7.10;;;2.70;99.90;;;;;;4897449;29;20140;-72
2021/12/09 00:30:18;;;;;;;16.55;7.28;;;2.70;99.90;;;;;;4912963;29;20056;-72
2021/12/09 00:32:43;;;;;;;13.05;7.03;;;2.70;99.90;;;;;;4895270;29;20052;-72
2021/12/09 00:35:13;;;;;;;13.25;6.55;;;2.60;99.90;;;;;;4886441;29;20433;-73
2021/12/09 00:37:50;;;;;;;14.30;7.68;;;2.60;99.90;;;;;;4890702;29;20051;-72
2021/12/09 00:40:16;;;;;;;14.15;7.20;;;2.60;99.90;;;;;;4879353;29;20059;-72
2021/12/09 00:42:42;;;;;;;13.63;6.60;;;2.60;99.90;;;;;;4878650;29;20052;-72
2021/12/09 00:45:08;;;;;;;15.40;7.30;;;2.60;99.90;;;;;;4879113;29;20052;-72
2021/12/09 00:47:33;;;;;;;15.40;7.57;;;2.60;99.90;;;;;;4895738;29;20058;-72
2021/12/09 00:49:59;;;;;;;12.77;6.35;;;2.60;99.90;;;;;;4903916;29;20350;-72
2021/12/09 00:52:25;;;;;;;16.25;7.25;;;2.60;99.90;;;;;;4895870;29;20055;-72
2021/12/09 00:54:51;;;;;;;18.23;6.97;;;2.50;99.90;;;;;;4894343;29;20519;-73
2021/12/09 00:57:18;;;;;;;19.25;7.03;;;2.50;99.90;;;;;;4886148;29;20052;-72
2021/12/09 00:59:43;;;;;;;13.90;6.53;;;2.50;99.90;;;;;;4897358;29;20472;-72
2021/12/09 01:02:10;;;;;;;18.20;7.78;;;2.50;99.90;;;;;;4898703;29;20040;-72
2021/12/09 01:04:37;;;;;;;18.02;7.32;;;2.50;99.90;;;;;;4887954;29;20092;-72
2021/12/09 01:07:04;;;;;;;20.30;8.35;;;2.50;99.90;;;;;;4895136;29;20090;-72
2021/12/09 01:09:30;;;;;;;14.63;7.15;;;2.50;99.90;;;;;;4914212;29;20044;-72
2021/12/09 01:11:56;;;;;;;14.75;7.13;;;2.60;99.90;;;;;;4908649;29;20044;-72
2021/12/09 01:14:21;;;;;;;18.40;7.75;;;2.50;99.90;;;;;;4897198;29;20059;-72
2021/12/09 01:16:47;;;;;;;12.70;7.30;;;2.50;99.90;;;;;;4902632;29;20065;-72
2021/12/09 01:19:13;;;;;;;15.57;7.72;;;2.50;99.90;;;;;;4892868;29;20036;-72
2021/12/09 01:21:39;;;;;;;19.42;8.13;;;2.50;99.90;;;;;;4889164;29;20044;-72
2021/12/09 01:24:04;;;;;;;16.45;7.82;;;2.50;99.90;;;;;;4881685;29;20100;-72
2021/12/09 01:26:31;;;;;;;13.82;8.10;;;2.50;99.90;;;;;;4883017;29;20139;-72
2021/12/09 01:29:09;;;;;;;14.40;7.57;;;2.50;99.90;;;;;;4898228;29;20040;-72
2021/12/09 01:31:38;;;;;;;16.05;7.85;;;2.50;99.90;;;;;;4908839;29;20044;-72
2021/12/09 01:34:04;;;;;;;16.15;7.60;;;2.50;99.90;;;;;;4911851;29;20154;-72
2021/12/09 01:36:32;;;;;;;16.73;8.27;;;2.40;99.90;;;;;;4889753;29;20044;-72
2021/12/09 01:39:00;;;;;;;14.25;7.45;;;2.40;99.90;;;;;;4900686;29;20052;-72
2021/12/09 01:41:26;;;;;;;18.10;8.18;;;2.40;99.90;;;;;;4898209;29;20063;-72
2021/12/09 01:43:51;;;;;;;16.63;8.50;;;2.40;99.90;;;;;;4896723;29;20048;-72
2021/12/09 01:46:20;;;;;;;16.88;8.90;;;2.40;99.90;;;;;;4888076;29;20481;-72
2021/12/09 01:48:48;;;;;;;15.13;8.23;;;2.40;99.90;;;;;;4916960;29;20365;-72
2021/12/09 01:51:15;;;;;;;18.40;8.57;;;2.40;99.90;;;;;;4893625;29;20048;-72
2021/12/09 01:53:41;;;;;;;11.88;7.85;;;2.40;99.90;;;;;;4881782;29;20067;-72
2021/12/09 01:56:10;;;;;;;18.50;8.75;;;2.40;99.90;;;;;;4885276;29;20056;-72
2021/12/09 01:58:36;;;;;;;22.00;7.97;;;2.50;99.90;;;;;;4895849;29;20055;-72
2021/12/09 02:01:04;;;;;;;17.90;9.68;;;2.30;99.90;;;;;;4894248;29;20071;-72
2021/12/09 02:03:31;;;;;;;18.83;9.45;;;2.30;99.90;;;;;;4881034;29;20563;-72
2021/12/09 02:05:57;;;;;;;18.77;8.70;;;2.30;99.90;;;;;;4897311;29;20093;-72
2021/12/09 02:08:23;;;;;;;16.90;8.10;;;2.30;99.90;;;;;;4898297;29;20052;-72
2021/12/09 02:10:50;;;;;;;15.75;8.70;;;2.30;99.90;;;;;;4898518;29;20064;-72
2021/12/09 02:13:16;;;;;;;18.08;8.95;;;2.30;99.90;;;;;;4899655;29;20036;-72
2021/12/09 02:15:42;;;;;;;14.85;9.02;;;2.20;99.90;;;;;;4885417;29;20045;-72
2021/12/09 02:18:10;;;;;;;15.25;9.10;;;2.30;99.90;;;;;;4890493;29;20048;-72
2021/12/09 02:20:38;;;;;;;18.20;9.10;;;2.20;99.90;;;;;;4913198;29;20601;-72
2021/12/09 02:23:08;;;;;;;20.75;10.55;;;2.20;99.90;;;;;;4898058;29;20044;-72
2021/12/09 02:25:35;;;;;;;16.23;8.52;;;2.20;99.90;;;;;;4898000;29;20053;-72
2021/12/09 02:28:00;;;;;;;16.40;9.68;;;2.20;99.90;;;;;;4897466;29;20579;-72
2021/12/09 02:30:26;;;;;;;18.27;9.25;;;2.20;99.90;;;;;;4913578;29;20119;-72
2021/12/09 02:32:52;;;;;;;16.52;9.13;;;2.20;99.90;;;;;;4897757;29;20071;-72
2021/12/09 02:35:18;;;;;;;18.17;8.65;;;2.20;99.90;;;;;;4897493;29;20056;-72
2021/12/09 02:37:44;;;;;;;18.17;9.13;;;2.10;99.90;;;;;;4907619;29;20123;-72
2021/12/09 02:40:11;;;;;;;17.70;9.23;;;2.10;99.90;;;;;;4879749;29;20501;-72
2021/12/09 02:42:37;;;;;;;16.73;9.18;;;2.10;99.90;;;;;;4888298;29;20847;-72
2021/12/09 02:45:07;;;;;;;17.35;9.57;;;2.20;99.90;;;;;;4896509;29;20048;-72
2021/12/09 02:47:33;;;;;;;19.23;10.10;;;2.10;99.90;;;;;;4910531;29;20044;-72
2021/12/09 02:49:59;;;;;;;18.63;10.35;;;2.10;99.90;;;;;;4880627;29;20067;-72
2021/12/09 02:52:25;;;;;;;16.95;9.77;;;2.10;99.90;;;;;;4881036;29;20048;-72
2021/12/09 02:54:51;;;;;;;16.80;8.77;;;2.10;99.90;;;;;;4880203;29;20119;-72
2021/12/09 02:57:17;;;;;;;19.02;10.68;;;2.00;99.90;;;;;;4880238;29;20075;-72
2021/12/09 02:59:43;;;;;;;22.23;10.57;;;2.00;99.90;;;;;;4898795;29;20048;-72
2021/12/09 03:02:10;;;;;;;22.05;10.45;;;2.00;99.90;;;;;;4898252;29;20063;-72
2021/12/09 03:04:50;;;;;;;20.48;10.43;;;2.00;99.90;;;;;;4880532;29;20464;-72
2021/12/09 03:07:23;;;;;;;22.35;10.63;;;2.00;99.90;;;;;;4880138;29;20048;-72
2021/12/09 03:09:53;;;;;;;26.73;10.48;;;2.00;99.90;;;;;;4879824;29;20076;-72
2021/12/09 03:12:21;;;;;;;19.02;11.57;;;2.00;99.90;;;;;;4879793;29;20862;-72
2021/12/09 03:14:47;;;;;;;21.55;10.57;;;2.00;99.90;;;;;;4879523;29;20390;-72
2021/12/09 03:17:13;;;;;;;18.65;9.95;;;2.00;99.90;;;;;;4886164;29;20051;-72
2021/12/09 03:19:39;;;;;;;22.33;11.38;;;2.00;99.90;;;;;;4880212;29;20040;-72
2021/12/09 03:22:04;;;;;;;22.02;11.15;;;2.00;99.90;;;;;;4878982;29;20048;-72
2021/12/09 03:24:30;;;;;;;19.02;10.40;;;2.00;99.90;;;;;;4879162;29;20060;-72
2021/12/09 03:26:58;;;;;;;18.02;10.90;;;2.00;99.90;;;;;;4879075;29;20120;-72
2021/12/09 03:29:26;;;;;;;19.10;10.70;;;1.90;99.90;;;;;;4879300;29;20048;-72
2021/12/09 03:31:54;;;;;;;23.00;12.07;;;1.90;99.90;;;;;;4879474;29;20068;-72
2021/12/09 03:34:21;;;;;;;26.40;11.48;;;1.90;99.90;;;;;;4879419;29;20512;-72
2021/12/09 03:36:49;;;;;;;21.88;11.88;;;1.90;99.90;;;;;;4879507;29;20044;-72
2021/12/09 03:39:18;;;;;;;17.20;9.32;;;2.00;99.90;;;;;;4879744;29;20533;-72
2021/12/09 03:41:50;;;;;;;21.65;11.45;;;1.90;99.90;;;;;;4901841;29;20039;-72
2021/12/09 03:44:16;;;;;;;24.80;11.10;;;1.90;99.90;;;;;;4895676;29;20044;-72
2021/12/09 03:46:43;;;;;;;21.75;11.30;;;1.90;99.90;;;;;;4914386;29;20492;-72
2021/12/09 03:49:09;;;;;;;20.42;11.45;;;1.90;99.90;;;;;;4887977;29;20052;-72
2021/12/09 03:51:35;;;;;;;20.60;11.20;;;1.90;99.90;;;;;;4896509;29;20048;-72
2021/12/09 03:54:04;;;;;;;22.13;11.82;;;2.10;99.90;;;;;;4888483;29;20068;-72
2021/12/09 03:56:30;;;;;;;22.13;10.90;;;1.90;99.90;;;;;;4910479;29;20067;-72
2021/12/09 03:58:56;;;;;;;21.75;12.52;;;1.90;99.90;;;;;;4896131;29;20048;-72
2021/12/09 04:01:21;;;;;;;20.00;11.95;;;1.90;99.90;;;;;;4879349;29;20045;-72
2021/12/09 04:03:47;;;;;;;21.27;10.52;;;1.90;99.90;;;;;;4878636;29;20563;-72
2021/12/09 04:06:13;;;;;;;27.13;12.73;;;1.90;99.90;;;;;;4896258;29;20593;-72
2021/12/09 04:08:39;;;;;;;19.92;11.25;;;1.80;99.90;;;;;;4913896;29;20056;-72
2021/12/09 04:11:05;;;;;;;20.55;12.23;;;1.80;99.90;;;;;;4897207;29;20052;-72
2021/12/09 04:13:32;;;;;;;18.13;11.02;;;1.80;99.90;;;;;;4897097;29;20047;-72
2021/12/09 04:15:59;;;;;;;16.40;10.05;;;1.80;99.90;;;;;;4882209;29;20100;-72
2021/12/09 04:18:24;;;;;;;23.95;12.18;;;1.80;99.90;;;;;;4882449;29;20055;-72
2021/12/09 04:20:50;;;;;;;23.58;11.90;;;1.80;99.90;;;;;;4897024;29;20056;-72
2021/12/09 04:23:15;;;;;;;18.25;11.27;;;1.80;99.90;;;;;;4887540;29;20072;-72
2021/12/09 04:25:41;;;;;;;18.20;10.15;;;1.80;99.90;;;;;;4885969;29;20043;-72
2021/12/09 04:28:07;;;;;;;24.25;12.15;;;1.80;99.90;;;;;;4887060;29;20058;-72
2021/12/09 04:30:33;;;;;;;19.05;10.05;;;1.80;99.90;;;;;;4897644;29;20052;-72
2021/12/09 04:32:59;;;;;;;17.95;10.48;;;1.70;99.90;;;;;;4896649;29;20068;-72
2021/12/09 04:35:25;;;;;;;18.27;10.65;;;1.70;99.90;;;;;;4892882;29;20066;-72
2021/12/09 04:37:50;;;;;;;23.38;11.95;;;1.70;99.90;;;;;;4888760;29;20045;-72
2021/12/09 04:40:17;;;;;;;22.30;12.07;;;1.70;99.90;;;;;;4879008;29;20044;-72
2021/12/09 04:42:43;;;;;;;20.00;12.68;;;1.70;99.90;;;;;;4884819;29;20464;-72
2021/12/09 04:45:10;;;;;;;22.50;12.38;;;1.70;99.90;;;;;;4896173;29;20052;-72
2021/12/09 04:47:35;;;;;;;21.05;12.50;;;1.70;99.90;;;;;;4880274;29;20101;-72
2021/12/09 04:50:03;;;;;;;21.90;12.43;;;1.70;99.90;;;;;;4878803;29;20052;-72
2021/12/09 04:52:28;;;;;;;21.58;11.00;;;1.70;99.90;;;;;;4895860;29;20052;-72
2021/12/09 04:54:54;;;;;;;18.83;12.15;;;1.70;99.90;;;;;;4912459;29;20059;-72
2021/12/09 04:57:19;;;;;;;21.17;12.23;;;1.70;99.90;;;;;;4899633;29;20052;-72
2021/12/09 04:59:47;;;;;;;21.88;11.55;;;1.70;99.90;;;;;;4898920;29;20214;-72
2021/12/09 05:02:23;;;;;;;20.52;12.45;;;1.70;99.90;;;;;;4882344;29;20045;-71
2021/12/09 05:04:49;;;;;;;20.88;11.25;;;1.70;99.90;;;;;;4896252;29;20863;-72
2021/12/09 05:07:14;;;;;;;26.05;12.23;;;1.70;99.90;;;;;;4882975;29;20057;-72
2021/12/09 05:09:49;;;;;;;22.05;12.10;;;1.70;99.90;;;;;;4882240;29;20087;-72
2021/12/09 05:12:16;;;;;;;21.40;11.95;;;1.60;99.90;;;;;;4888181;29;20049;-72
2021/12/09 05:14:44;;;;;;;23.70;12.85;;;1.60;99.90;;;;;;4917500;29;20527;-72
2021/12/09 05:17:10;;;;;;;20.75;11.70;;;1.60;99.90;;;;;;4915169;29;20047;-72
2021/12/09 05:19:36;;;;;;;20.85;12.20;;;1.60;99.90;;;;;;4899830;29;20052;-72
2021/12/09 05:22:03;;;;;;;21.52;10.55;;;1.60;99.90;;;;;;4898242;29;20049;-72
2021/12/09 05:24:28;;;;;;;25.25;12.65;;;1.60;99.90;;;;;;4894638;29;20071;-72
2021/12/09 05:26:55;;;;;;;19.60;12.15;;;1.60;99.90;;;;;;4881044;29;20064;-72
2021/12/09 05:29:28;;;;;;;16.13;10.23;;;1.60;99.90;;;;;;4882689;29;20567;-72
2021/12/09 05:32:10;;;;;;;21.38;11.73;;;1.70;99.90;;;;;;4881825;29;20056;-72
2021/12/09 05:34:54;;;;;;;14.90;9.45;;;1.50;99.90;;;;;;4883113;29;20048;-72
2021/12/09 05:37:22;;;;;;;22.00;12.70;;;1.50;99.90;;;;;;4893188;29;20059;-72
2021/12/09 05:39:49;;;;;;;23.98;11.82;;;1.50;99.90;;;;;;4900482;29;20424;-72
2021/12/09 05:42:17;;;;;;;23.60;12.77;;;1.40;99.90;;;;;;4899138;29;20048;-73
2021/12/09 05:44:43;;;;;;;26.92;13.63;;;1.40;99.90;;;;;;4907433;29;20063;-72
2021/12/09 05:47:10;;;;;;;25.42;12.63;;;1.40;99.90;;;;;;4899169;29;20060;-72
2021/12/09 05:49:37;;;;;;;23.50;13.70;;;1.40;99.90;;;;;;4896703;29;20052;-71
2021/12/09 05:52:05;;;;;;;25.38;13.98;;;1.40;99.90;;;;;;4898800;29;20052;-72
2021/12/09 05:54:31;;;;;;;23.45;12.68;;;1.40;99.90;;;;;;4900109;29;20059;-72
2021/12/09 05:56:58;;;;;;;25.67;13.13;;;1.40;99.90;;;;;;4881070;29;20053;-72
2021/12/09 05:59:24;;;;;;;21.35;13.18;;;1.40;99.90;;;;;;4884455;29;20527;-72
2021/12/09 06:01:50;;;;;;;26.67;13.52;;;1.40;99.90;;;;;;4912590;29;20119;-72
2021/12/09 06:04:15;;;;;;;25.33;13.85;;;1.40;99.90;;;;;;4899845;29;20053;-72
2021/12/09 06:06:41;;;;;;;25.60;13.65;;;1.40;99.90;;;;;;4910786;29;20052;-72
2021/12/09 06:09:09;;;;;;;25.88;13.93;;;1.60;99.90;;;;;;4889511;29;20048;-72
2021/12/09 06:11:35;;;;;;;27.35;13.93;;;1.40;99.90;;;;;;4881468;29;20112;-71
2021/12/09 06:14:01;;;;;;;23.23;14.35;;;1.40;99.90;;;;;;4888922;29;20056;-72
2021/12/09 06:16:27;;;;;;;23.30;13.30;;;1.40;99.90;;;;;;4890559;29;20040;-72
2021/12/09 06:18:54;;;;;;;29.10;14.73;;;1.30;99.90;;;;;;4909300;29;20092;-72
2021/12/09 06:21:22;;;;;;;24.17;13.48;;;1.50;99.90;;;;;;4890931;29;20052;-71
2021/12/09 06:23:48;;;;;;;23.25;12.65;;;1.40;99.90;;;;;;4898790;29;20408;-72
2021/12/09 06:26:14;;;;;;;25.90;15.07;;;1.30;99.90;;;;;;4888167;29;20084;-72
2021/12/09 06:28:39;;;;;;;26.73;14.52;;;1.30;99.90;;;;;;4880619;29;20087;-72
2021/12/09 06:31:06;;;;;;;30.80;15.02;;;1.30;99.90;;;;;;4904275;29;20040;-72
2021/12/09 06:33:32;;;;;;;25.13;14.70;;;1.30;99.90;;;;;;4908570;29;20072;-72
2021/12/09 06:35:58;;;;;;;24.42;14.43;;;1.30;99.90;;;;;;4891971;29;20430;-72
2021/12/09 06:38:24;;;;;;;26.33;15.70;;;1.30;99.90;;;;;;4899254;29;20052;-72
2021/12/09 06:40:50;;;;;;;20.95;12.10;;;1.30;99.90;;;;;;4897965;29;20068;-73
2021/12/09 06:43:16;;;;;;;26.45;13.55;;;1.30;99.90;;;;;;4884709;29;20143;-72
2021/12/09 06:45:42;;;;;;;27.25;14.50;;;1.30;99.90;;;;;;4904490;29;20044;-72
2021/12/09 06:48:08;;;;;;;23.13;13.27;;;1.40;99.90;;;;;;4899389;29;20055;-72
2021/12/09 06:50:34;;;;;;;24.02;13.52;;;1.20;99.90;;;;;;4888134;29;20096;-72
2021/12/09 06:52:59;;;;;;;25.63;13.15;;;1.20;99.90;;;;;;4880889;29;20485;-72
2021/12/09 06:55:25;;;;;;;24.00;13.93;;;1.20;99.90;;;;;;4896099;29;20036;-72
2021/12/09 06:57:51;;;;;;;24.15;14.18;;;1.20;99.90;;;;;;4913824;29;20094;-72
2021/12/09 07:00:27;;;;;;;23.77;13.90;;;1.40;99.90;;;;;;4898616;29;20508;-72
2021/12/09 07:02:53;;;;;;;26.10;13.93;;;1.20;99.90;;;;;;4895853;29;20068;-72
2021/12/09 07:05:22;;;;;;;26.85;12.70;;;1.20;99.90;;;;;;4880431;29;20099;-72
2021/12/09 07:07:48;;;;;;;26.88;13.82;;;1.20;99.90;;;;;;4895366;29;20504;-72
2021/12/09 07:10:14;;;;;;;28.63;14.18;;;1.20;99.90;;;;;;4885622;29;20056;-72
2021/12/09 07:12:40;;;;;;;22.05;13.05;;;1.10;99.90;;;;;;4907600;29;20051;-72
2021/12/09 07:15:08;;;;;;;20.38;11.68;;;1.10;99.90;;;;;;4887582;29;20111;-72
2021/12/09 07:17:34;;;;;;;25.70;13.52;;;1.10;99.90;;;;;;4879998;29;20061;-73
2021/12/09 07:20:01;;;;;;;21.27;11.32;;;1.10;99.90;;;;;;4888896;29;20106;-72
2021/12/09 07:22:26;;;;;;;22.77;12.50;;;1.10;99.90;;;;;;4891926;29;20066;-72
2021/12/09 07:24:52;;;;;;;27.02;13.50;;;1.20;99.90;;;;;;4887773;29;20056;-73
2021/12/09 07:27:18;;;;;;;25.00;12.60;;;1.10;99.90;;;;;;4905683;29;20118;-71
2021/12/09 07:29:43;;;;;;;24.48;12.77;;;1.10;99.90;;;;;;4896259;29;20040;-72
2021/12/09 07:32:09;;;;;;;24.05;13.57;;;1.10;99.90;;;;;;4883255;29;20036;-71
2021/12/09 07:34:35;;;;;;;24.17;12.70;;;1.10;99.90;;;;;;4880263;29;20072;-71
2021/12/09 07:37:04;;;;;;;26.42;13.93;;;1.10;99.90;;;;;;4905651;29;20088;-71
2021/12/09 07:39:32;;;;;;;22.73;13.15;;;1.10;99.90;;;;;;4888294;29;20500;-72
2021/12/09 07:41:59;;;;;;;22.85;12.57;;;1.10;99.90;;;;;;4891996;29;20052;-71
2021/12/09 07:44:26;;;;;;;24.75;14.23;;;1.30;99.90;;;;;;4910875;29;20051;-72
2021/12/09 07:46:53;;;;;;;24.38;13.75;;;1.10;99.90;;;;;;4895080;29;20062;-73
2021/12/09 07:49:22;;;;;;;22.80;12.20;;;1.10;99.90;;;;;;4889994;29;20048;-73
2021/12/09 07:51:48;;;;;;;18.77;11.15;;;1.10;99.90;;;;;;4904446;29;20508;-73
2021/12/09 07:54:14;;;;;;;25.92;12.43;;;1.10;99.90;;;;;;4891408;29;20131;-74
2021/12/09 07:56:40;;;;;;;23.23;12.52;;;1.10;99.90;;;;;;4879090;29;20052;-74
2021/12/09 07:59:06;;;;;;;23.45;14.00;;;1.10;99.90;;;;;;4892874;29;20539;-74
2021/12/09 08:01:31;;;;;;;26.13;13.98;;;1.10;99.90;;;;;;4879639;29;20060;-74
2021/12/09 08:03:58;;;;;;;30.92;13.68;;;1.10;99.90;;;;;;4879161;29;20124;-74
2021/12/09 08:06:24;;;;;;;20.77;12.60;;;1.10;99.90;;;;;;4880450;29;20068;-74
2021/12/09 08:08:50;;;;;;;19.65;11.82;;;1.10;99.90;;;;;;4879892;29;20100;-74
2021/12/09 08:11:15;;;;;;;26.88;14.02;;;1.10;99.90;;;;;;4908120;29;20056;-74
2021/12/09 08:13:41;;;;;;;26.85;13.60;;;1.10;99.90;;;;;;4897698;29;20079;-74
2021/12/09 08:16:07;;;;;;;26.70;14.23;;;1.10;99.90;;;;;;4894971;29;20574;-74
2021/12/09 08:18:53;;;;;;;27.88;14.57;;;1.10;99.90;;;;;;4882856;29;20463;-74
2021/12/09 08:21:19;;;;;;;25.58;13.32;;;1.10;99.90;;;;;;4913482;29;20135;-74
2021/12/09 08:23:45;;;;;;;32.33;14.93;;;1.10;99.90;;;;;;4908536;29;20044;-74
2021/12/09 08:26:10;;;;;;;28.50;13.18;;;1.10;99.90;;;;;;4913901;29;20071;-74
2021/12/09 08:28:36;;;;;;;25.70;13.90;;;1.20;99.90;;;;;;4898626;29;20201;-74
2021/12/09 08:31:01;;;;;;;32.05;14.38;;;1.20;99.90;;;;;;4888051;29;20103;-74
2021/12/09 08:33:27;;;;;;;22.65;13.85;;;1.20;99.90;;;;;;4935707;29;20139;-74
2021/12/09 08:35:52;;;;;;;31.88;14.57;;;1.20;99.90;;;;;;4920573;29;20040;-74
2021/12/09 08:38:18;;;;;;;25.85;13.27;;;1.20;99.90;;;;;;4935433;29;20044;-74
2021/12/09 08:40:45;;;;;;;25.10;13.98;;;1.20;99.90;;;;;;4920897;29;20528;-74
2021/12/09 08:43:11;;;;;;;29.20;13.57;;;1.20;99.90;;;;;;4921247;29;20127;-74
2021/12/09 08:45:37;;;;;;;26.92;13.43;;;1.20;99.90;;;;;;4903347;29;20092;-74
2021/12/09 08:48:04;;;;;;;24.05;13.30;;;1.30;99.90;;;;;;4903535;29;20040;-74
2021/12/09 08:50:33;;;;;;;25.77;13.75;;;1.30;99.90;;;;;;4890599;29;20548;-74
2021/12/09 08:53:00;;;;;;;26.40;13.68;;;1.30;99.90;;;;;;4904174;29;20087;-74
2021/12/09 08:55:26;;;;;;;26.25;14.02;;;1.30;99.90;;;;;;4917535;29;20059;-74
2021/12/09 08:57:52;;;;;;;24.92;13.68;;;1.30;99.90;;;;;;4883860;29;20040;-74
2021/12/09 09:00:18;;;;;;;29.17;14.80;;;1.30;99.90;;;;;;4886202;29;20155;-74
2021/12/09 09:02:46;;;;;;;29.38;14.95;;;1.60;99.90;;;;;;4884703;29;20044;-74
2021/12/09 09:05:13;;;;;;;27.10;13.63;;;1.40;99.90;;;;;;4884428;29;20396;-74
2021/12/09 09:07:41;;;;;;;26.27;12.80;;;1.40;99.90;;;;;;4885197;29;20512;-74
2021/12/09 09:10:08;;;;;;;22.90;12.27;;;1.40;99.90;;;;;;4908159;29;20059;-74
2021/12/09 09:12:34;;;;;;;23.60;12.65;;;1.50;99.90;;;;;;4899655;29;20121;-74
2021/12/09 09:15:01;;;;;;;24.75;12.57;;;1.50;99.90;;;;;;4886534;29;20063;-74
2021/12/09 09:17:26;;;;;;;24.50;12.50;;;1.50;99.90;;;;;;4903818;29;20052;-74
2021/12/09 09:19:52;;;;;;;24.85;12.60;;;1.50;99.90;;;;;;4891326;29;20122;-73
2021/12/09 09:22:18;;;;;;;20.25;11.73;;;1.60;99.90;;;;;;4918110;29;20064;-73
2021/12/09 09:24:44;;;;;;;23.00;12.93;;;1.60;99.90;;;;;;4932375;29;20044;-73
2021/12/09 09:27:09;;;;;;;22.10;11.77;;;1.60;99.90;;;;;;4919777;29;20079;-73
2021/12/09 09:29:37;;;;;;;27.30;12.48;;;1.60;99.90;;;;;;4911759;29;20040;-73
2021/12/09 09:32:04;;;;;;;25.13;11.75;;;1.70;99.90;;;;;;4884748;29;20055;-74
2021/12/09 09:34:31;;;;;;;29.75;12.38;;;1.70;99.90;;;;;;4901631;29;20052;-74
2021/12/09 09:36:57;;;;;;;22.27;12.10;;;1.70;99.90;;;;;;4915204;29;20052;-74
2021/12/09 09:39:27;;;;;;;23.63;12.57;;;1.80;99.90;;;;;;4915165;29;20109;-74
2021/12/09 09:42:18;;;;;;;22.13;10.77;;;1.70;99.90;;;;;;4881023;29;20131;-74
2021/12/09 09:44:54;;;;;;;23.23;11.02;;;1.80;99.90;;;;;;4900533;29;20068;-75
2021/12/09 09:47:25;;;;;;;18.90;10.40;;;1.80;99.90;;;;;;4904807;29;20098;-73
2021/12/09 09:49:52;;;;;;;25.33;10.73;;;1.90;99.90;;;;;;4899262;29;20044;-73
2021/12/09 09:52:19;;;;;;;21.88;10.82;;;1.90;99.90;;;;;;4889402;29;20049;-73
2021/12/09 09:54:45;;;;;;;23.17;12.20;;;1.90;99.90;;;;;;4892556;29;20488;-73
2021/12/09 09:57:11;;;;;;;18.02;10.77;;;2.00;99.90;;;;;;4916153;29;20154;-73
2021/12/09 09:59:40;;;;;;;23.70;11.40;;;2.60;99.90;;;;;;4935647;29;20048;-74
2021/12/09 10:02:07;;;;;;;19.92;10.70;;;2.10;99.90;;;;;;4915134;29;20054;-72
2021/12/09 10:04:43;;;;;;;18.77;10.00;;;2.10;99.90;;;;;;4897499;29;20120;-73
2021/12/09 10:07:09;;;;;;;20.35;10.02;;;2.10;99.90;;;;;;4890619;29;20058;-72
2021/12/09 10:09:35;;;;;;;18.92;9.90;;;2.20;99.90;;;;;;4899770;29;20132;-72
2021/12/09 10:12:02;;;;;;;18.65;9.90;;;2.20;99.90;;;;;;4915957;29;20131;-72
2021/12/09 10:14:32;;;;;;;21.52;9.65;;;2.30;99.90;;;;;;4900238;29;20555;-73
2021/12/09 10:17:04;;;;;;;20.80;10.00;;;2.30;99.90;;;;;;4898411;29;20144;-72
2021/12/09 10:19:30;;;;;;;18.73;9.50;;;2.40;99.90;;;;;;4899308;29;20048;-73
2021/12/09 10:22:16;;;;;;;17.85;9.70;;;2.30;99.90;;;;;;4882703;29;20064;-73
2021/12/09 10:24:44;;;;;;;15.20;9.02;;;2.40;99.90;;;;;;4880967;29;20519;-72
2021/12/09 10:27:29;;;;;;;18.27;9.48;;;2.50;99.90;;;;;;4889937;29;20056;-73
2021/12/09 10:30:12;;;;;;;20.02;9.23;;;2.50;99.90;;;;;;4898285;29;20044;-72
2021/12/09 10:32:39;;;;;;;17.92;9.60;;;2.60;99.90;;;;;;4884680;29;20055;-73
2021/12/09 10:35:13;;;;;;;17.63;9.90;;;2.60;99.90;;;;;;4882989;29;20108;-72
2021/12/09 10:37:40;;;;;;;15.52;8.50;;;2.70;99.90;;;;;;4879010;29;20523;-72
2021/12/09 10:40:07;;;;;;;22.25;10.38;;;2.70;99.90;;;;;;4881343;29;20135;-72
2021/12/09 10:42:34;;;;;;;17.65;9.25;;;2.70;99.90;;;;;;4880277;29;20056;-73
2021/12/09 10:45:03;;;;;;;17.13;9.00;;;2.80;99.90;;;;;;4880850;29;20481;-73
2021/12/09 10:50:20;;;;;;;19.00;8.73;;;2.90;99.90;;;;;;4879214;29;20057;-73
2021/12/09 10:52:50;;;;;;;20.00;8.88;;;2.90;99.90;;;;;;4899994;29;20410;-73
2021/12/09 10:55:20;;;;;;;15.43;9.00;;;3.00;99.90;;;;;;4880750;29;20063;-73
2021/12/09 10:58:07;;;;;;;19.60;9.32;;;3.00;99.90;;;;;;4879625;29;20048;-73
2021/12/09 11:00:41;;;;;;;17.80;9.18;;;3.00;99.90;;;;;;4879437;29;20059;-73
2021/12/09 11:03:23;;;;;;;20.70;9.02;;;3.10;99.90;;;;;;4883816;29;20057;-73
2021/12/09 11:05:53;;;;;;;18.40;9.30;;;3.10;99.90;;;;;;4914752;29;20052;-74
2021/12/09 11:08:32;;;;;;;19.70;9.77;;;3.10;99.90;;;;;;4912973;29;20052;-73
2021/12/09 11:10:58;;;;;;;21.23;10.10;;;3.10;99.90;;;;;;4895847;29;20136;-73
2021/12/09 11:13:24;;;;;;;19.25;9.73;;;3.10;99.90;;;;;;4913697;29;20188;-73
2021/12/09 11:15:55;;;;;;;19.15;9.45;;;3.20;99.90;;;;;;4915367;29;20052;-73
2021/12/09 11:18:32;;;;;;;22.63;10.63;;;3.10;99.90;;;;;;4912937;29;20083;-72
2021/12/09 11:21:02;;;;;;;20.40;9.70;;;3.10;99.90;;;;;;4893892;29;20142;-72
2021/12/09 11:23:42;;;;;;;19.15;10.23;;;3.10;99.90;;;;;;4915908;29;20495;-72
2021/12/09 11:26:28;;;;;;;18.45;10.00;;;3.10;99.90;;;;;;4904081;29;20056;-72
2021/12/09 11:29:28;;;;;;;22.25;11.15;;;3.10;99.90;;;;;;4915471;29;20044;-74
2021/12/09 11:32:17;;;;;;;18.77;9.90;;;3.00;99.90;;;;;;4915721;29;20050;-73
2021/12/09 11:35:00;;;;;;;27.55;11.27;;;3.00;99.90;;;;;;4898193;29;20058;-73
2021/12/09 11:40:49;;;;;;;17.65;10.10;;;3.00;99.90;;;;;;4914767;29;20159;-74
2021/12/09 11:43:18;;;;;;;23.00;10.35;;;3.00;99.90;;;;;;4914437;29;20443;-74
2021/12/09 11:45:45;;;;;;;24.85;12.32;;;3.00;99.90;;;;;;4885592;29;20060;-74
2021/12/09 11:48:12;;;;;;;27.15;14.65;;;3.00;99.90;;;;;;4897034;29;20044;-74
2021/12/09 11:50:41;;;;;;;20.10;12.00;;;3.10;99.90;;;;;;4880595;29;20060;-74
2021/12/09 11:53:11;;;;;;;24.95;12.23;;;3.10;99.90;;;;;;4913282;29;20063;-74
2021/12/09 11:55:45;;;;;;;25.73;12.25;;;3.10;99.90;;;;;;4905905;29;20037;-74
2021/12/09 11:58:18;;;;;;;25.63;12.53;;;3.10;99.90;;;;;;4905568;29;20115;-74
2021/12/09 12:12:52;;;;;;;24.13;11.98;;;3.20;99.90;;;;;;4895452;29;20056;-74
2021/12/09 12:15:27;;;;;;;29.50;14.27;;;3.10;99.90;;;;;;4910539;29;20420;-74
2021/12/09 12:18:34;;;;;;;32.47;13.98;;;3.10;99.90;;;;;;4914549;29;20051;-74
2021/12/09 12:24:22;;;;;;;28.65;12.48;;;3.20;99.90;;;;;;4872767;29;20116;-74
2021/12/09 12:32:16;;;;;;;25.40;12.55;;;3.20;99.90;;;;;;4890742;29;20416;-73
2021/12/09 12:41:06;;;;;;;28.70;12.25;;;3.20;99.90;;;;;;4904583;29;20401;-74
2021/12/09 12:43:36;;;;;;;27.80;12.80;;;3.20;99.90;;;;;;4904632;29;20044;-73
2021/12/09 12:46:14;;;;;;;33.05;13.27;;;3.20;99.90;;;;;;4894053;29;20048;-73
2021/12/09 12:49:02;;;;;;;23.88;12.65;;;3.20;99.90;;;;;;4913950;29;20103;-73
2021/12/09 12:51:43;;;;;;;31.02;12.68;;;3.20;99.90;;;;;;4912771;29;20548;-74
2021/12/09 12:56:56;;;;;;;23.65;12.30;;;3.30;99.90;;;;;;4897201;29;20505;-73
2021/12/09 12:59:35;;;;;;;29.30;12.85;;;3.20;99.90;;;;;;4897224;29;20496;-73
2021/12/09 13:02:03;;;;;;;22.80;12.70;;;3.30;99.90;;;;;;4896350;29;20431;-74
2021/12/09 13:07:34;;;;;;;27.75;12.88;;;3.30;99.90;;;;;;4896416;29;20067;-74
2021/12/09 13:16:03;;;;;;;23.70;14.55;;;3.30;99.90;;;;;;4898772;29;20116;-72
2021/12/09 13:18:43;;;;;;;25.27;11.13;;;3.30;99.90;;;;;;4899670;29;20059;-71
2021/12/09 13:21:35;;;;;;;27.05;12.57;;;3.40;99.90;;;;;;4906173;29;20056;-72
2021/12/09 13:30:31;;;;;;;28.98;12.80;;;3.30;99.90;;;;;;4897244;29;20044;-71
2021/12/09 13:35:39;;;;;;;25.67;13.40;;;3.40;99.90;;;;;;4900852;29;20053;-72
2021/12/09 13:46:30;;;;;;;28.23;13.63;;;3.40;99.90;;;;;;4885577;29;20107;-72
2021/12/09 13:49:05;;;;;;;25.92;13.55;;;3.40;99.90;;;;;;4899478;29;20134;-71